< < Back
Terminal Aerodrome Forecast


Current Version              Previous Versions:   1  2  3  4  5  6  7  8  9  

Terminal Aerodrome Forecast

310
FTUS44 KOHX 272000 AAA
TAFBNA
TAF AMD
KBNA 272050Z 2721/2818 34009KT P6SM SCT030
     FM280100 33003KT P6SM SCT040
     FM281500 16006KT P6SM SCT100=

Latest METAR

527
SAUS70 KWBC 280500 RRB
MTRBNA
METAR KBNA 280453Z 00000KT 10SM FEW036 M01/M06 A3047 RMK AO2 SLP323
T10111061


USA.gov is the U.S. government's official web portal to all federal, state and local government web resources and services.